createdAt,value
2022-09-06T00:03:19.150Z,96.60
2022-09-06T00:08:11.435Z,98.89
2022-09-06T00:13:03.186Z,100.00
2022-09-06T00:17:52.589Z,100.00
2022-09-06T00:22:42.051Z,100.00
2022-09-06T00:27:34.308Z,100.00
2022-09-06T00:32:23.929Z,100.00
2022-09-06T00:37:13.346Z,100.00
2022-09-06T00:42:02.741Z,100.00
2022-09-06T00:46:55.777Z,100.00
2022-09-06T00:51:45.518Z,100.00
2022-09-06T00:56:35.738Z,100.00
2022-09-06T01:01:25.312Z,100.00
2022-09-06T01:06:25.502Z,100.00
2022-09-06T01:11:24.811Z,100.00
2022-09-06T01:16:20.107Z,100.00
2022-09-06T01:21:19.555Z,100.00
2022-09-06T01:26:18.617Z,100.00
2022-09-06T01:31:17.511Z,100.00
2022-09-06T01:36:09.666Z,100.00
2022-09-06T01:40:59.131Z,100.00
2022-09-06T01:45:59.737Z,100.00
2022-09-06T01:50:56.336Z,100.00
2022-09-06T01:55:51.795Z,100.00
2022-09-06T02:00:45.119Z,100.00
2022-09-06T02:05:37.670Z,100.00
2022-09-06T02:10:34.903Z,100.00
2022-09-06T02:15:26.290Z,100.00
2022-09-06T02:20:17.613Z,100.00
2022-09-06T02:25:09.868Z,100.00
2022-09-06T02:30:03.042Z,100.00
2022-09-06T02:34:53.878Z,100.00
2022-09-06T02:39:43.371Z,100.00
2022-09-06T02:44:32.780Z,100.00
2022-09-06T02:49:24.851Z,98.90
2022-09-06T02:54:15.019Z,100.00
2022-09-06T02:59:05.514Z,100.00
2022-09-06T03:03:56.228Z,100.00
2022-09-06T03:08:48.274Z,100.00
2022-09-06T03:13:37.753Z,100.00
2022-09-06T03:18:27.692Z,100.00
2022-09-06T03:23:17.145Z,100.00
2022-09-06T03:28:09.521Z,100.00
2022-09-06T03:33:02.621Z,100.00
2022-09-06T03:37:52.380Z,100.00
2022-09-06T03:42:41.811Z,100.00
2022-09-06T03:47:33.833Z,100.00
2022-09-06T03:52:23.241Z,100.00
2022-09-06T03:57:12.769Z,100.00
2022-09-06T04:02:02.192Z,100.00
2022-09-06T04:06:54.200Z,100.00
2022-09-06T04:11:45.190Z,100.00
2022-09-06T04:16:34.851Z,100.00
2022-09-06T04:21:24.246Z,100.00
2022-09-06T04:26:16.717Z,100.00
2022-09-06T04:31:06.680Z,100.00
2022-09-06T04:35:57.529Z,100.00
2022-09-06T04:40:47.100Z,100.00
2022-09-06T04:45:39.744Z,100.00
2022-09-06T04:50:29.263Z,100.00
2022-09-06T04:55:29.425Z,100.00
2022-09-06T05:00:19.112Z,100.00
2022-09-06T05:05:11.733Z,100.00
2022-09-06T05:10:01.460Z,100.00
2022-09-06T05:14:50.850Z,100.00
2022-09-06T05:19:40.375Z,100.00
2022-09-06T05:24:32.606Z,100.00
2022-09-06T05:29:22.002Z,100.00
2022-09-06T05:34:13.523Z,100.00
2022-09-06T05:39:03.021Z,100.00
2022-09-06T05:43:55.601Z,100.00
2022-09-06T05:48:45.106Z,100.00
2022-09-06T05:53:38.999Z,100.00
2022-09-06T05:58:28.725Z,100.00
2022-09-06T06:03:20.864Z,100.00
2022-09-06T06:08:10.369Z,100.00
2022-09-06T06:13:00.636Z,100.00
2022-09-06T06:17:50.017Z,100.00
2022-09-06T06:22:42.174Z,100.00
2022-09-06T06:27:34.093Z,100.00
2022-09-06T06:32:23.504Z,100.00
2022-09-06T06:37:12.933Z,100.00
2022-09-06T06:42:04.954Z,100.00
2022-09-06T06:47:10.453Z,100.00
2022-09-06T06:52:00.074Z,100.00
2022-09-06T06:56:52.381Z,100.00
2022-09-06T07:01:45.025Z,100.00
2022-09-06T07:11:44.958Z,100.00
2022-09-06T07:16:34.474Z,100.00
2022-09-06T07:21:43.421Z,100.00
2022-09-06T07:26:33.736Z,100.00
2022-09-06T07:36:35.599Z,100.00
2022-09-06T07:41:26.022Z,100.00
2022-09-06T07:46:16.307Z,100.00
2022-09-06T07:51:06.820Z,100.00
2022-09-06T07:55:58.994Z,100.00
2022-09-06T08:00:48.470Z,100.00
2022-09-06T08:10:52.408Z,100.00
2022-09-06T08:15:44.969Z,100.00
2022-09-06T08:20:34.785Z,100.00
2022-09-06T08:25:26.081Z,100.00
2022-09-06T08:30:15.994Z,99.68
2022-09-06T08:35:08.502Z,100.00
2022-09-06T08:39:58.662Z,100.00
2022-09-06T08:44:57.556Z,100.00
2022-09-06T08:49:48.531Z,100.00
2022-09-06T08:54:42.840Z,100.00
2022-09-06T08:59:36.766Z,100.00
2022-09-06T09:04:28.806Z,95.92
2022-09-06T09:09:19.089Z,100.00
2022-09-06T09:14:15.297Z,98.56
2022-09-06T09:19:05.273Z,96.78
2022-09-06T09:23:56.079Z,97.99
2022-09-06T09:29:00.463Z,95.26
2022-09-06T09:33:52.466Z,94.09
2022-09-06T09:38:45.289Z,92.62
2022-09-06T09:43:36.431Z,92.73
2022-09-06T09:48:28.201Z,89.82
2022-09-06T09:53:21.654Z,90.23
2022-09-06T09:58:18.560Z,88.77
2022-09-06T10:03:14.419Z,87.32
2022-09-06T10:08:04.004Z,86.15
2022-09-06T10:13:08.928Z,84.33
2022-09-06T10:17:58.382Z,83.32
2022-09-06T10:22:54.458Z,83.65
2022-09-06T10:28:08.151Z,81.87
2022-09-06T10:33:05.507Z,81.28
2022-09-06T10:38:03.973Z,79.25
2022-09-06T10:42:54.588Z,79.94
2022-09-06T10:47:57.451Z,79.86
2022-09-06T10:52:51.972Z,79.34
2022-09-06T11:13:24.169Z,79.78
2022-09-06T11:18:18.691Z,81.88
2022-09-06T11:23:20.354Z,78.51
2022-09-06T11:28:11.867Z,77.11
2022-09-06T11:33:22.247Z,76.24
2022-09-06T11:38:21.898Z,77.57
2022-09-06T11:43:17.265Z,75.01
2022-09-06T11:48:21.615Z,76.20
2022-09-06T11:53:20.207Z,76.11
2022-09-06T11:58:13.736Z,75.14
2022-09-06T12:08:29.809Z,72.70
2022-09-06T12:13:38.756Z,73.56
2022-09-06T12:18:47.557Z,73.22
2022-09-06T12:23:46.438Z,73.32
2022-09-06T12:28:38.077Z,73.15
2022-09-06T12:33:31.476Z,71.95
2022-09-06T12:38:25.847Z,71.35
2022-09-06T12:43:20.280Z,67.98
2022-09-06T12:48:11.789Z,69.82
2022-09-06T12:53:03.219Z,67.70
2022-09-06T12:57:55.138Z,68.15
2022-09-06T13:02:53.011Z,66.53
2022-09-06T13:07:43.810Z,69.26
2022-09-06T13:12:35.625Z,66.17
2022-09-06T13:17:26.303Z,65.72
2022-09-06T13:22:39.056Z,64.00
2022-09-06T13:27:29.389Z,63.38
2022-09-06T13:32:18.846Z,65.77
2022-09-06T13:37:10.226Z,64.59
2022-09-06T13:42:03.908Z,64.39
2022-09-06T13:46:56.560Z,63.95
2022-09-06T13:51:46.169Z,63.10
2022-09-06T13:56:35.532Z,58.98
2022-09-06T14:01:28.096Z,59.77
2022-09-06T14:06:18.356Z,59.69
2022-09-06T14:11:08.730Z,60.75
2022-09-06T14:15:58.574Z,62.05
2022-09-06T14:20:58.735Z,62.41
2022-09-06T14:25:48.187Z,62.25
2022-09-06T14:30:38.234Z,63.07
2022-09-06T14:35:27.842Z,63.64
2022-09-06T14:40:20.245Z,61.49
2022-09-06T14:45:10.546Z,63.21
2022-09-06T14:50:00.548Z,63.98
2022-09-06T14:54:49.983Z,59.62
2022-09-06T14:59:42.016Z,61.74
2022-09-06T15:04:33.111Z,59.80
2022-09-06T15:09:23.207Z,61.19
2022-09-06T15:14:15.955Z,59.75
2022-09-06T15:19:08.916Z,58.42
2022-09-06T15:23:58.845Z,60.60
2022-09-06T15:28:48.461Z,61.19
2022-09-06T15:33:39.002Z,59.73
2022-09-06T15:38:31.155Z,62.08
2022-09-06T15:43:20.583Z,64.26
2022-09-06T15:48:10.592Z,63.80
2022-09-06T15:53:00.537Z,64.12
2022-09-06T15:57:52.576Z,65.86
2022-09-06T16:02:42.692Z,66.50
2022-09-06T16:07:32.793Z,67.56
2022-09-06T16:12:22.841Z,67.67
2022-09-06T16:17:18.654Z,67.77
2022-09-06T16:22:08.859Z,67.96
2022-09-06T16:26:58.356Z,68.49
2022-09-06T16:31:48.252Z,66.66
2022-09-06T16:36:40.675Z,69.19
2022-09-06T16:41:31.511Z,70.23
2022-09-06T16:46:21.267Z,71.45
2022-09-06T16:51:11.353Z,71.20
2022-09-06T16:56:04.560Z,71.60
2022-09-06T17:00:54.077Z,71.70
2022-09-06T17:05:43.785Z,69.26
2022-09-06T17:10:33.283Z,69.88
2022-09-06T17:15:25.557Z,71.23
2022-09-06T17:20:15.789Z,69.44
2022-09-06T17:25:05.325Z,70.54
2022-09-06T17:29:54.702Z,69.99
2022-09-06T17:34:47.035Z,71.91
2022-09-06T17:39:36.725Z,70.34
2022-09-06T17:44:27.584Z,70.23
2022-09-06T17:49:18.254Z,71.85
2022-09-06T17:54:10.898Z,70.81
2022-09-06T17:59:01.845Z,70.63
2022-09-06T18:03:51.488Z,70.22
2022-09-06T18:08:41.869Z,70.30
2022-09-06T18:13:34.064Z,71.76
2022-09-06T18:18:23.544Z,72.45
2022-09-06T18:23:14.175Z,71.06
2022-09-06T18:28:04.325Z,72.27
2022-09-06T18:32:57.198Z,72.81
2022-09-06T18:37:47.139Z,73.28
2022-09-06T18:42:37.886Z,73.97
2022-09-06T18:47:30.760Z,74.07
2022-09-06T18:52:23.925Z,73.43
2022-09-06T18:57:16.128Z,74.10
2022-09-06T19:02:06.537Z,73.72
2022-09-06T19:06:56.625Z,74.00
2022-09-06T19:11:51.753Z,73.98
2022-09-06T19:16:42.231Z,74.37
2022-09-06T19:21:32.342Z,75.22
2022-09-06T19:26:23.754Z,76.08
2022-09-06T19:31:17.278Z,77.48
2022-09-06T19:36:12.234Z,79.29
2022-09-06T19:41:06.758Z,80.27
2022-09-06T19:45:58.733Z,79.89
2022-09-06T19:50:51.595Z,79.52
2022-09-06T19:55:42.061Z,80.06
2022-09-06T20:00:35.516Z,80.19
2022-09-06T20:05:25.941Z,80.23
2022-09-06T20:10:18.604Z,80.66
2022-09-06T20:15:09.289Z,80.01
2022-09-06T20:19:58.837Z,80.28
2022-09-06T20:24:48.277Z,80.39
2022-09-06T20:29:40.299Z,81.36
2022-09-06T20:34:30.684Z,80.57
2022-09-06T20:39:20.160Z,80.59
2022-09-06T20:44:09.627Z,80.87
2022-09-06T20:49:04.570Z,82.40
2022-09-06T20:53:55.632Z,85.17
2022-09-06T20:58:45.640Z,89.61
2022-09-06T21:03:35.299Z,91.13
2022-09-06T21:08:31.741Z,92.20
2022-09-06T21:13:23.847Z,91.21
2022-09-06T21:18:13.528Z,96.04
2022-09-06T21:23:03.082Z,100.00
2022-09-06T21:27:55.881Z,100.00
2022-09-06T21:32:45.548Z,100.00
2022-09-06T21:37:35.229Z,100.00
2022-09-06T21:42:25.806Z,100.00
2022-09-06T21:47:18.596Z,100.00
2022-09-06T21:52:08.960Z,100.00
2022-09-06T21:56:59.031Z,100.00
2022-09-06T22:01:49.733Z,100.00
2022-09-06T22:06:43.039Z,100.00
2022-09-06T22:11:34.200Z,100.00
2022-09-06T22:16:25.205Z,100.00
2022-09-06T22:21:18.746Z,100.00
2022-09-06T22:26:13.698Z,100.00
2022-09-06T22:31:04.416Z,100.00
2022-09-06T22:35:55.100Z,100.00
2022-09-06T22:40:45.529Z,100.00
2022-09-06T22:45:38.374Z,100.00
2022-09-06T22:50:28.808Z,100.00
2022-09-06T22:55:19.002Z,100.00
2022-09-06T23:00:09.834Z,100.00
2022-09-06T23:05:02.617Z,100.00
2022-09-06T23:09:52.679Z,100.00
2022-09-06T23:14:42.794Z,100.00
2022-09-06T23:19:32.815Z,100.00
2022-09-06T23:24:25.634Z,100.00
2022-09-06T23:29:15.872Z,100.00
2022-09-06T23:34:06.444Z,100.00
2022-09-06T23:38:56.846Z,100.00
2022-09-06T23:43:49.729Z,100.00
2022-09-06T23:48:39.870Z,100.00
2022-09-06T23:53:30.134Z,100.00
2022-09-06T23:58:20.528Z,100.00
